createdAt,value
2017-07-08T00:00:13.009Z,10.37
2017-07-08T00:02:40.562Z,11.53
2017-07-08T00:05:07.994Z,13.47
2017-07-08T00:07:35.449Z,12.90
2017-07-08T00:10:02.982Z,12.57
2017-07-08T00:12:30.423Z,17.37
2017-07-08T00:14:57.965Z,18.03
2017-07-08T00:17:25.506Z,12.63
2017-07-08T00:19:52.945Z,12.00
2017-07-08T00:22:20.382Z,10.60
2017-07-08T00:24:47.818Z,10.60
2017-07-08T00:27:15.249Z,12.47
2017-07-08T00:29:42.690Z,11.03
2017-07-08T00:32:10.250Z,9.80
2017-07-08T00:34:37.699Z,10.87
2017-07-08T00:37:05.133Z,10.70
2017-07-08T00:39:32.569Z,11.60
2017-07-08T00:42:00.121Z,10.17
2017-07-08T00:44:27.582Z,11.53
2017-07-08T00:46:55.102Z,10.80
2017-07-08T00:49:22.534Z,13.03
2017-07-08T00:51:50.090Z,11.90
2017-07-08T00:54:17.525Z,11.40
2017-07-08T00:56:44.973Z,12.23
2017-07-08T00:59:12.409Z,12.50
2017-07-08T01:01:39.845Z,10.80
2017-07-08T01:04:07.394Z,11.60
2017-07-08T01:06:34.829Z,9.50
2017-07-08T01:09:02.388Z,12.13
2017-07-08T01:11:29.922Z,11.13
2017-07-08T01:13:57.466Z,12.77
2017-07-08T01:16:24.897Z,11.83
2017-07-08T01:18:52.346Z,11.17
2017-07-08T01:21:19.889Z,12.43
2017-07-08T01:23:47.324Z,11.83
2017-07-08T01:26:14.873Z,14.73
2017-07-08T01:28:42.327Z,12.87
2017-07-08T01:31:09.765Z,11.83
2017-07-08T01:33:37.197Z,10.80
2017-07-08T01:36:04.646Z,12.70
2017-07-08T01:38:32.090Z,13.50
2017-07-08T01:40:59.519Z,10.10
2017-07-08T01:43:27.067Z,12.63
2017-07-08T01:45:54.496Z,12.23
2017-07-08T01:48:21.988Z,12.00
2017-07-08T01:50:50.306Z,10.53
2017-07-08T01:53:17.841Z,10.53
2017-07-08T01:55:45.284Z,9.73
2017-07-08T01:58:12.725Z,12.03
2017-07-08T02:00:40.168Z,13.00
2017-07-08T02:03:07.610Z,11.50
2017-07-08T02:05:35.073Z,13.33
2017-07-08T02:08:02.530Z,10.50
2017-07-08T02:10:30.749Z,12.73
2017-07-08T02:12:58.392Z,12.80
2017-07-08T02:15:25.858Z,13.23
2017-07-08T02:17:53.387Z,15.50
2017-07-08T02:20:20.832Z,14.33
2017-07-08T02:22:49.190Z,12.10
2017-07-08T02:25:16.628Z,11.40
2017-07-08T02:27:44.061Z,11.13
2017-07-08T02:30:11.506Z,11.23
2017-07-08T02:32:39.058Z,11.50
2017-07-08T02:35:06.489Z,10.77
2017-07-08T02:37:33.927Z,11.47
2017-07-08T02:40:01.357Z,14.07
2017-07-08T02:42:28.816Z,12.03
2017-07-08T02:44:56.258Z,13.00
2017-07-08T02:47:23.689Z,11.87
2017-07-08T02:49:51.130Z,12.97
2017-07-08T02:52:18.582Z,13.23
2017-07-08T02:54:46.018Z,13.20
2017-07-08T02:57:13.466Z,13.60
2017-07-08T02:59:41.011Z,13.37
2017-07-08T03:02:08.546Z,17.53
2017-07-08T03:04:36.094Z,13.60
2017-07-08T03:07:03.530Z,11.50
2017-07-08T03:09:30.980Z,11.47
2017-07-08T03:11:58.517Z,11.23
2017-07-08T03:14:25.962Z,11.90
2017-07-08T03:16:53.502Z,11.37
2017-07-08T03:19:21.045Z,12.63
2017-07-08T03:21:48.580Z,10.57
2017-07-08T03:24:16.035Z,16.77
2017-07-08T03:26:43.473Z,11.70
2017-07-08T03:29:11.018Z,10.60
2017-07-08T03:31:38.559Z,15.17
2017-07-08T03:34:06.104Z,14.77
2017-07-08T03:36:33.540Z,11.50
2017-07-08T03:39:01.080Z,12.43
2017-07-08T03:41:28.517Z,14.33
2017-07-08T03:43:56.066Z,12.20
2017-07-08T03:46:23.509Z,14.10
2017-07-08T03:48:51.054Z,12.40
2017-07-08T03:51:18.591Z,13.53
2017-07-08T03:53:46.029Z,10.60
2017-07-08T03:56:13.482Z,13.00
2017-07-08T03:58:40.923Z,13.23
2017-07-08T04:01:08.462Z,14.20
2017-07-08T04:03:36.098Z,12.57
2017-07-08T04:06:03.549Z,13.10
2017-07-08T04:08:30.990Z,11.20
2017-07-08T04:10:58.533Z,14.40
2017-07-08T04:13:26.074Z,10.17
2017-07-08T04:15:53.509Z,11.33
2017-07-08T04:18:20.961Z,13.00
2017-07-08T04:20:48.501Z,11.10
2017-07-08T04:23:15.927Z,10.13
2017-07-08T04:25:43.367Z,10.37
2017-07-08T04:28:10.822Z,11.60
2017-07-08T04:30:38.368Z,10.53
2017-07-08T04:33:05.797Z,10.80
2017-07-08T04:35:33.241Z,10.20
2017-07-08T04:38:00.688Z,7.90
2017-07-08T04:40:28.109Z,8.23
2017-07-08T04:42:55.544Z,9.30
2017-07-08T04:45:22.979Z,8.97
2017-07-08T04:47:50.449Z,10.20
2017-07-08T04:50:17.881Z,8.93
2017-07-08T04:52:45.322Z,12.30
2017-07-08T04:55:12.768Z,10.30
2017-07-08T04:57:40.317Z,11.30
2017-07-08T05:00:07.753Z,12.07
2017-07-08T05:02:35.197Z,12.40
2017-07-08T05:05:02.643Z,13.30
2017-07-08T05:07:30.076Z,12.67
2017-07-08T05:09:57.625Z,14.40
2017-07-08T05:12:25.065Z,12.60
2017-07-08T05:14:52.513Z,17.87
2017-07-08T05:17:20.040Z,17.10
2017-07-08T05:19:47.585Z,12.10
2017-07-08T05:22:15.021Z,14.37
2017-07-08T05:24:42.460Z,11.10
2017-07-08T05:27:09.897Z,10.70
2017-07-08T05:29:37.334Z,14.50
2017-07-08T05:32:04.774Z,13.10
2017-07-08T05:34:32.238Z,10.60
2017-07-08T05:36:59.782Z,11.00
2017-07-08T05:39:27.317Z,15.90
2017-07-08T05:41:54.856Z,13.50
2017-07-08T05:44:22.294Z,13.00
2017-07-08T05:46:49.841Z,15.93
2017-07-08T05:49:17.305Z,15.83
2017-07-08T05:51:44.745Z,16.87
2017-07-08T05:54:12.186Z,14.90
2017-07-08T05:56:39.613Z,13.23
2017-07-08T05:59:07.158Z,14.00
2017-07-08T06:01:34.597Z,12.60
2017-07-08T06:04:02.136Z,14.87
2017-07-08T06:06:29.570Z,13.20
2017-07-08T06:08:57.273Z,11.70
2017-07-08T06:11:24.794Z,13.77
2017-07-08T06:13:53.037Z,15.00
2017-07-08T06:16:20.476Z,16.50
2017-07-08T06:18:48.013Z,17.93
2017-07-08T06:21:15.556Z,13.83
2017-07-08T06:23:42.988Z,14.43
2017-07-08T06:26:10.556Z,16.20
2017-07-08T06:28:38.092Z,12.70
2017-07-08T06:31:05.557Z,17.10
2017-07-08T06:33:33.787Z,16.07
2017-07-08T06:36:01.230Z,19.03
2017-07-08T06:38:28.796Z,19.60
2017-07-08T06:40:56.231Z,16.87
2017-07-08T06:43:23.753Z,20.13
2017-07-08T06:45:51.335Z,18.93
2017-07-08T06:48:19.590Z,16.60
2017-07-08T06:50:47.101Z,17.33
2017-07-08T06:53:14.691Z,19.53
2017-07-08T06:55:42.208Z,19.13
2017-07-08T06:58:09.726Z,26.03
2017-07-08T07:00:37.178Z,27.07
2017-07-08T07:03:04.623Z,22.77
2017-07-08T07:05:32.062Z,22.13
2017-07-08T07:07:59.506Z,20.50
2017-07-08T07:10:26.947Z,27.40
2017-07-08T07:12:54.378Z,24.37
2017-07-08T07:15:21.830Z,31.97
2017-07-08T07:17:49.257Z,29.53
2017-07-08T07:20:16.689Z,24.33
2017-07-08T07:22:44.134Z,23.20
2017-07-08T07:25:11.577Z,28.50
2017-07-08T07:27:39.022Z,22.10
2017-07-08T07:30:06.474Z,24.70
2017-07-08T07:32:33.918Z,28.80
2017-07-08T07:35:01.350Z,24.70
2017-07-08T07:37:28.806Z,27.20
2017-07-08T07:39:56.239Z,27.63
2017-07-08T07:42:23.678Z,30.40
2017-07-08T07:44:51.133Z,33.33
2017-07-08T07:47:18.573Z,29.80
2017-07-08T07:49:46.014Z,29.83
2017-07-08T07:52:14.221Z,29.23
2017-07-08T07:54:41.658Z,27.43
2017-07-08T07:57:09.093Z,33.47
2017-07-08T07:59:36.538Z,31.40
2017-07-08T08:02:03.965Z,25.60
2017-07-08T08:04:31.400Z,29.00
2017-07-08T08:06:58.884Z,36.80
2017-07-08T08:09:26.322Z,26.73
2017-07-08T08:11:53.762Z,33.53
2017-07-08T08:14:21.193Z,26.50
2017-07-08T08:16:48.642Z,28.97
2017-07-08T08:19:16.078Z,29.13
2017-07-08T08:21:43.516Z,28.40
2017-07-08T08:24:10.960Z,30.27
2017-07-08T08:26:38.390Z,25.30
2017-07-08T08:29:05.838Z,30.60
2017-07-08T08:31:33.273Z,25.50
2017-07-08T08:34:00.716Z,21.57
2017-07-08T08:36:28.161Z,22.40
2017-07-08T08:38:55.605Z,17.50
2017-07-08T08:41:23.045Z,17.00
2017-07-08T08:43:50.482Z,22.17
2017-07-08T08:46:18.035Z,19.87
2017-07-08T08:48:45.453Z,14.77
2017-07-08T08:51:12.902Z,16.40
2017-07-08T08:53:40.337Z,13.30
2017-07-08T08:56:07.777Z,15.40
2017-07-08T08:58:35.215Z,13.50
2017-07-08T09:01:02.670Z,14.10
2017-07-08T09:03:30.111Z,15.50
2017-07-08T09:05:57.553Z,9.53
2017-07-08T09:08:24.989Z,13.40
2017-07-08T09:10:52.422Z,8.70
2017-07-08T09:13:19.859Z,9.33
2017-07-08T09:15:47.292Z,10.80
2017-07-08T09:18:14.727Z,8.90
2017-07-08T09:20:42.156Z,8.00
2017-07-08T09:23:10.369Z,6.40
2017-07-08T09:25:37.797Z,7.13
2017-07-08T09:28:05.231Z,11.37
2017-07-08T09:30:32.675Z,14.73
2017-07-08T09:33:00.107Z,12.03
2017-07-08T09:35:27.546Z,10.43
2017-07-08T09:37:54.979Z,12.90
2017-07-08T09:40:22.413Z,12.30
2017-07-08T09:42:49.845Z,11.30
2017-07-08T09:45:18.062Z,10.03
2017-07-08T09:47:45.492Z,10.17
2017-07-08T09:50:12.926Z,10.30
2017-07-08T09:52:40.369Z,10.47
2017-07-08T09:55:07.797Z,9.20
2017-07-08T09:57:35.242Z,10.53
2017-07-08T10:00:02.678Z,11.13
2017-07-08T10:02:30.117Z,9.90
2017-07-08T10:04:57.533Z,11.30
2017-07-08T10:07:24.981Z,10.20
2017-07-08T10:09:52.413Z,10.37
2017-07-08T10:12:19.845Z,9.43
2017-07-08T10:14:48.087Z,11.77
2017-07-08T10:17:15.560Z,9.70
2017-07-08T10:19:43.002Z,10.90
2017-07-08T10:22:10.428Z,8.00
2017-07-08T10:24:38.629Z,8.17
2017-07-08T10:27:06.066Z,7.27
2017-07-08T10:29:33.506Z,8.23
2017-07-08T10:32:00.926Z,6.80
2017-07-08T10:34:28.365Z,50.30
2017-07-08T10:36:55.813Z,20.23
2017-07-08T10:39:23.247Z,10.67
2017-07-08T10:41:50.682Z,8.77
2017-07-08T10:44:18.114Z,10.07
2017-07-08T10:46:46.326Z,11.80
2017-07-08T10:49:13.768Z,19.30
2017-07-08T10:51:41.206Z,9.27
2017-07-08T10:54:08.630Z,6.50
2017-07-08T10:56:36.053Z,6.03
2017-07-08T10:59:03.493Z,4.63
2017-07-08T11:01:30.922Z,5.60
2017-07-08T11:03:58.350Z,5.60
2017-07-08T11:06:25.773Z,6.17
2017-07-08T11:08:53.215Z,6.03
2017-07-08T11:11:20.637Z,6.30
2017-07-08T11:13:48.073Z,7.60
2017-07-08T11:16:15.502Z,7.43
2017-07-08T11:18:42.930Z,7.40
2017-07-08T11:21:10.360Z,8.50
2017-07-08T11:23:37.787Z,6.23
2017-07-08T11:26:05.230Z,6.17
2017-07-08T11:28:32.658Z,5.13
2017-07-08T11:31:00.865Z,7.43
2017-07-08T11:33:28.294Z,5.77
2017-07-08T11:35:55.728Z,6.90
2017-07-08T11:38:23.166Z,8.23
2017-07-08T11:40:50.597Z,6.27
2017-07-08T11:43:18.045Z,6.43
2017-07-08T11:45:45.468Z,5.60
2017-07-08T11:48:12.919Z,4.93
2017-07-08T11:50:40.350Z,4.90
2017-07-08T11:53:08.546Z,4.30
2017-07-08T11:55:35.973Z,3.60
2017-07-08T11:58:03.413Z,4.17
2017-07-08T12:00:30.849Z,4.10
2017-07-08T12:02:58.282Z,4.57
2017-07-08T12:05:25.726Z,3.73
2017-07-08T12:07:53.154Z,4.20
2017-07-08T12:10:20.582Z,4.30
2017-07-08T12:12:48.027Z,4.83
2017-07-08T12:15:16.217Z,5.80
2017-07-08T12:17:43.650Z,5.33
2017-07-08T12:20:11.077Z,4.90
2017-07-08T12:22:39.289Z,5.23
2017-07-08T12:25:06.718Z,4.90
2017-07-08T12:27:34.144Z,4.97
2017-07-08T12:30:01.606Z,5.73
2017-07-08T12:32:29.029Z,5.70
2017-07-08T12:34:56.471Z,5.10
2017-07-08T12:37:23.949Z,5.10
2017-07-08T12:39:51.389Z,4.70
2017-07-08T12:42:18.812Z,5.60
2017-07-08T12:44:46.250Z,5.20
2017-07-08T12:47:13.700Z,5.10
2017-07-08T12:49:41.121Z,4.53
2017-07-08T12:52:08.561Z,4.90
2017-07-08T12:54:35.994Z,6.50
2017-07-08T12:57:03.445Z,5.83
2017-07-08T12:59:30.894Z,9.23
2017-07-08T13:01:58.336Z,7.13
2017-07-08T13:04:25.771Z,6.27
2017-07-08T13:06:53.202Z,5.37
2017-07-08T13:09:20.639Z,6.20
2017-07-08T13:11:48.069Z,5.30
2017-07-08T13:14:15.518Z,5.73
2017-07-08T13:16:42.937Z,5.60
2017-07-08T13:19:10.360Z,4.20
2017-07-08T13:21:37.804Z,5.30
2017-07-08T13:24:05.993Z,5.60
2017-07-08T13:26:33.437Z,5.73
2017-07-08T13:29:00.874Z,5.43
2017-07-08T13:31:28.308Z,6.07
2017-07-08T13:33:55.730Z,5.57
2017-07-08T13:36:23.937Z,4.80
2017-07-08T13:38:51.372Z,6.57
2017-07-08T13:41:18.802Z,6.07
2017-07-08T13:43:46.243Z,5.57
2017-07-08T13:46:13.669Z,5.47
2017-07-08T13:48:41.111Z,5.20
2017-07-08T13:51:08.537Z,4.90
2017-07-08T13:53:36.737Z,5.30
2017-07-08T13:56:04.170Z,4.80
2017-07-08T13:58:31.617Z,4.93
2017-07-08T14:00:59.046Z,5.73
2017-07-08T14:03:26.478Z,5.17
2017-07-08T14:05:53.913Z,5.03
2017-07-08T14:08:21.345Z,6.00
2017-07-08T14:10:48.782Z,5.87
2017-07-08T14:13:16.987Z,5.47
2017-07-08T14:15:44.434Z,4.93
2017-07-08T14:18:11.862Z,5.10
2017-07-08T14:20:39.298Z,5.33
2017-07-08T14:23:06.732Z,5.43
2017-07-08T14:25:34.169Z,4.93
2017-07-08T14:28:01.608Z,7.80
2017-07-08T14:30:29.037Z,5.57
2017-07-08T14:32:56.494Z,4.73
2017-07-08T14:35:24.748Z,4.13
2017-07-08T14:37:52.175Z,5.10
2017-07-08T14:40:19.617Z,4.53
2017-07-08T14:42:47.322Z,6.03
2017-07-08T14:45:14.737Z,4.60
2017-07-08T14:47:42.165Z,7.20
2017-07-08T14:50:09.616Z,7.33
2017-07-08T14:52:37.032Z,4.20
2017-07-08T14:55:04.477Z,5.20
2017-07-08T14:57:31.910Z,3.20
2017-07-08T14:59:59.333Z,3.63
2017-07-08T15:02:27.533Z,3.93
2017-07-08T15:04:54.964Z,2.33
2017-07-08T15:07:22.410Z,2.43
2017-07-08T15:09:49.842Z,2.43
2017-07-08T15:12:17.277Z,2.50
2017-07-08T15:14:44.703Z,7.53
2017-07-08T15:17:12.138Z,2.10
2017-07-08T15:19:39.589Z,2.80
2017-07-08T15:22:07.013Z,3.37
2017-07-08T15:24:35.225Z,2.33
2017-07-08T15:27:02.646Z,2.27
2017-07-08T15:29:30.096Z,2.30
2017-07-08T15:31:57.517Z,2.23
2017-07-08T15:34:24.967Z,2.50
2017-07-08T15:36:52.398Z,2.20
2017-07-08T15:39:19.840Z,9.10
2017-07-08T15:41:47.269Z,5.80
2017-07-08T15:44:14.698Z,2.83
2017-07-08T15:46:42.897Z,2.70
2017-07-08T15:49:10.365Z,6.77
2017-07-08T15:51:37.798Z,3.90
2017-07-08T15:54:05.218Z,4.70
2017-07-08T15:56:32.654Z,3.00
2017-07-08T15:59:00.092Z,4.40
2017-07-08T16:01:27.533Z,4.30
2017-07-08T16:03:54.970Z,3.27
2017-07-08T16:06:22.405Z,2.80
2017-07-08T16:08:49.840Z,4.30
2017-07-08T16:11:17.266Z,2.93
2017-07-08T16:13:45.474Z,3.03
2017-07-08T16:16:12.903Z,3.20
2017-07-08T16:18:40.346Z,6.10
2017-07-08T16:21:07.777Z,4.27
2017-07-08T16:23:35.209Z,5.13
2017-07-08T16:26:02.646Z,5.70
2017-07-08T16:28:30.091Z,4.07
2017-07-08T16:30:57.539Z,5.20
2017-07-08T16:33:24.965Z,4.70
2017-07-08T16:35:52.426Z,6.77
2017-07-08T16:38:19.859Z,3.77
2017-07-08T16:40:47.298Z,4.90
2017-07-08T16:43:14.729Z,9.70
2017-07-08T16:45:42.160Z,4.77
2017-07-08T16:48:10.363Z,3.50
2017-07-08T16:50:37.794Z,3.70
2017-07-08T16:53:05.244Z,16.83
2017-07-08T16:55:32.669Z,8.53
2017-07-08T16:58:00.116Z,19.27
2017-07-08T17:00:27.559Z,20.50
2017-07-08T17:02:54.999Z,7.97
2017-07-08T17:05:22.430Z,8.03
2017-07-08T17:07:49.881Z,12.50
2017-07-08T17:10:17.301Z,8.27
2017-07-08T17:12:44.746Z,6.27
2017-07-08T17:15:12.197Z,6.73
2017-07-08T17:17:39.626Z,24.10
2017-07-08T17:20:07.066Z,10.77
2017-07-08T17:22:34.501Z,23.10
2017-07-08T17:25:01.943Z,21.90
2017-07-08T17:27:29.381Z,15.37
2017-07-08T17:29:56.830Z,18.30
2017-07-08T17:32:24.258Z,6.90
2017-07-08T17:34:51.698Z,5.80
2017-07-08T17:37:19.140Z,11.03
2017-07-08T17:39:46.585Z,12.20
2017-07-08T17:42:14.023Z,7.50
2017-07-08T17:44:41.461Z,8.90
2017-07-08T17:47:09.659Z,7.90
2017-07-08T17:49:37.090Z,5.83
2017-07-08T17:52:04.522Z,3.83
2017-07-08T17:54:31.953Z,5.73
2017-07-08T17:56:59.400Z,3.90
2017-07-08T17:59:26.830Z,5.63
2017-07-08T18:01:54.262Z,6.50
2017-07-08T18:04:21.714Z,4.90
2017-07-08T18:06:49.146Z,4.83
2017-07-08T18:09:16.579Z,7.00
2017-07-08T18:11:44.778Z,4.07
2017-07-08T18:14:12.206Z,4.57
2017-07-08T18:16:39.649Z,6.40
2017-07-08T18:19:07.083Z,5.60
2017-07-08T18:21:34.522Z,4.97
2017-07-08T18:24:01.965Z,6.63
2017-07-08T18:26:29.397Z,4.67
2017-07-08T18:28:56.827Z,6.00
2017-07-08T18:31:25.029Z,4.00
2017-07-08T18:33:52.469Z,3.70
2017-07-08T18:36:19.896Z,3.83
2017-07-08T18:38:47.341Z,4.97
2017-07-08T18:41:14.765Z,5.77
2017-07-08T18:43:42.189Z,6.03
2017-07-08T18:46:09.630Z,5.87
2017-07-08T18:48:37.062Z,4.83
2017-07-08T18:51:04.505Z,8.83
2017-07-08T18:53:32.697Z,6.57
2017-07-08T18:56:00.123Z,6.93
2017-07-08T18:58:27.566Z,6.27
2017-07-08T19:00:55.038Z,5.13
2017-07-08T19:03:22.474Z,4.53
2017-07-08T19:05:49.911Z,10.70
2017-07-08T19:08:17.342Z,6.37
2017-07-08T19:10:44.775Z,8.50
2017-07-08T19:13:12.218Z,5.63
2017-07-08T19:15:39.669Z,8.60
2017-07-08T19:18:07.089Z,5.73
2017-07-08T19:20:34.558Z,6.60
2017-07-08T19:23:01.985Z,6.00
2017-07-08T19:25:29.418Z,8.33
2017-07-08T19:27:56.863Z,6.70
2017-07-08T19:30:24.298Z,7.60
2017-07-08T19:32:51.733Z,6.83
2017-07-08T19:35:19.162Z,7.40
2017-07-08T19:37:46.601Z,8.77
2017-07-08T19:40:14.797Z,6.30
2017-07-08T19:42:42.249Z,11.50
2017-07-08T19:45:09.701Z,9.53
2017-07-08T19:47:37.126Z,7.70
2017-07-08T19:50:04.560Z,7.47
2017-07-08T19:52:31.995Z,9.23
2017-07-08T19:54:59.435Z,8.10
2017-07-08T19:57:26.861Z,8.10
2017-07-08T19:59:54.312Z,12.90
2017-07-08T20:02:21.751Z,15.17
2017-07-08T20:04:49.198Z,17.50
2017-07-08T20:07:16.659Z,11.70
2017-07-08T20:09:44.061Z,9.73
2017-07-08T20:12:11.503Z,8.50
2017-07-08T20:14:38.925Z,8.33
2017-07-08T20:17:06.365Z,6.97
2017-07-08T20:19:33.805Z,8.80
2017-07-08T20:22:02.009Z,9.70
2017-07-08T20:24:29.441Z,11.73
2017-07-08T20:26:56.886Z,10.47
2017-07-08T20:29:24.321Z,8.00
2017-07-08T20:31:51.756Z,7.30
2017-07-08T20:34:19.189Z,7.87
2017-07-08T20:36:46.621Z,8.67
2017-07-08T20:39:14.059Z,11.27
2017-07-08T20:41:41.502Z,9.03
2017-07-08T20:44:09.030Z,7.47
2017-07-08T20:46:37.220Z,8.07
2017-07-08T20:49:04.677Z,7.67
2017-07-08T20:51:32.107Z,8.13
2017-07-08T20:53:59.532Z,9.60
2017-07-08T20:56:26.974Z,7.57
2017-07-08T20:58:54.407Z,8.60
2017-07-08T21:01:21.850Z,7.60
2017-07-08T21:03:49.279Z,7.70
2017-07-08T21:06:17.717Z,8.43
2017-07-08T21:08:45.152Z,7.80
2017-07-08T21:11:12.739Z,9.30
2017-07-08T21:13:40.168Z,8.10
2017-07-08T21:16:07.597Z,8.80
2017-07-08T21:18:35.203Z,7.73
2017-07-08T21:21:02.630Z,8.03
2017-07-08T21:23:30.067Z,8.80
2017-07-08T21:25:57.495Z,8.83
2017-07-08T21:28:24.933Z,7.90
2017-07-08T21:30:52.365Z,7.63
2017-07-08T21:33:19.815Z,11.13
2017-07-08T21:35:47.241Z,9.93
2017-07-08T21:38:14.684Z,9.67
2017-07-08T21:40:42.122Z,9.90
2017-07-08T21:43:10.322Z,10.80
2017-07-08T21:45:37.756Z,8.47
2017-07-08T21:48:05.189Z,9.37
2017-07-08T21:50:32.633Z,10.43
2017-07-08T21:53:00.065Z,13.27
2017-07-08T21:55:27.514Z,9.93
2017-07-08T21:57:54.948Z,10.00
2017-07-08T22:00:22.378Z,9.93
2017-07-08T22:02:49.819Z,10.60
2017-07-08T22:05:17.323Z,10.40
2017-07-08T22:07:44.754Z,10.37
2017-07-08T22:10:12.185Z,10.63
2017-07-08T22:12:39.635Z,11.77
2017-07-08T22:15:07.067Z,11.30
2017-07-08T22:17:35.307Z,11.73
2017-07-08T22:20:02.732Z,10.33
2017-07-08T22:22:30.168Z,9.67
2017-07-08T22:24:57.600Z,9.63
2017-07-08T22:27:25.037Z,12.33
2017-07-08T22:29:52.488Z,11.83
2017-07-08T22:32:19.917Z,11.43
2017-07-08T22:34:47.367Z,10.33
2017-07-08T22:37:14.799Z,10.00
2017-07-08T22:39:42.241Z,11.47
2017-07-08T22:42:10.430Z,11.63
2017-07-08T22:44:37.861Z,12.80
2017-07-08T22:47:05.297Z,14.63
2017-07-08T22:49:32.729Z,11.10
2017-07-08T22:52:00.161Z,9.83
2017-07-08T22:54:27.600Z,11.23
2017-07-08T22:56:55.793Z,11.37
2017-07-08T22:59:23.230Z,14.70
2017-07-08T23:01:50.677Z,18.23
2017-07-08T23:04:18.106Z,12.50
2017-07-08T23:06:45.541Z,14.43
2017-07-08T23:09:12.977Z,12.47
2017-07-08T23:11:40.451Z,20.13
2017-07-08T23:14:07.874Z,16.43
2017-07-08T23:16:35.306Z,16.00
2017-07-08T23:19:02.741Z,16.70
2017-07-08T23:21:30.173Z,19.97
2017-07-08T23:23:57.632Z,19.43
2017-07-08T23:26:25.057Z,17.83
2017-07-08T23:28:52.501Z,18.03
2017-07-08T23:31:19.937Z,19.87
2017-07-08T23:33:47.365Z,19.50
2017-07-08T23:36:15.573Z,20.40
2017-07-08T23:38:43.006Z,21.10
2017-07-08T23:41:10.442Z,24.73
2017-07-08T23:43:37.874Z,22.00
2017-07-08T23:46:05.341Z,24.33
2017-07-08T23:48:32.782Z,24.60
2017-07-08T23:51:00.220Z,26.73
2017-07-08T23:53:27.658Z,26.13
2017-07-08T23:55:55.089Z,27.20
2017-07-08T23:58:22.538Z,28.70
